createdAt,value
2023-05-10T00:01:50.819Z,96302.44
2023-05-10T00:04:17.845Z,96305.28
2023-05-10T00:06:44.917Z,96301.78
2023-05-10T00:09:11.897Z,96304.59
2023-05-10T00:11:38.889Z,96302.34
2023-05-10T00:14:05.978Z,96297.72
2023-05-10T00:16:33.061Z,96306.38
2023-05-10T00:19:00.124Z,96301.72
2023-05-10T00:21:27.716Z,96300.00
2023-05-10T00:23:54.708Z,96308.97
2023-05-10T00:26:22.255Z,96310.19
2023-05-10T00:28:52.718Z,96304.03
2023-05-10T00:31:19.842Z,96312.13
2023-05-10T00:33:46.791Z,96312.22
2023-05-10T00:36:14.105Z,96300.19
2023-05-10T00:38:42.063Z,96304.69
2023-05-10T00:41:09.526Z,96302.69
2023-05-10T00:43:38.567Z,96303.50
2023-05-10T00:46:05.946Z,96301.91
2023-05-10T00:48:32.978Z,96296.69
2023-05-10T00:51:00.059Z,96301.41
2023-05-10T00:53:27.044Z,96298.47
2023-05-10T00:55:54.152Z,96299.75
2023-05-10T00:58:21.375Z,96293.09
2023-05-10T01:00:49.550Z,96296.09
2023-05-10T01:03:16.531Z,96296.09
2023-05-10T01:05:43.846Z,96285.78
2023-05-10T01:08:10.815Z,96287.91
2023-05-10T01:10:37.804Z,96286.66
2023-05-10T01:13:04.846Z,96286.50
2023-05-10T01:15:32.074Z,96288.16
2023-05-10T01:17:59.153Z,96287.88
2023-05-10T01:20:26.436Z,96286.78
2023-05-10T01:23:23.938Z,96286.09
2023-05-10T01:26:09.143Z,96289.13
2023-05-10T01:29:10.060Z,96279.53
2023-05-10T01:31:36.966Z,96290.47
2023-05-10T01:34:08.524Z,96281.41
2023-05-10T01:36:46.882Z,96288.91
2023-05-10T01:39:29.142Z,96287.75
2023-05-10T01:41:59.794Z,96281.22
2023-05-10T01:44:40.488Z,96287.09
2023-05-10T01:47:11.292Z,96289.78
2023-05-10T01:49:39.992Z,96287.28
2023-05-10T01:52:12.045Z,96285.22
2023-05-10T01:54:44.234Z,96289.84
2023-05-10T01:57:13.196Z,96289.09
2023-05-10T01:59:43.042Z,96279.50
2023-05-10T02:02:12.929Z,96290.03
2023-05-10T02:04:40.835Z,96291.03
2023-05-10T02:07:08.059Z,96286.47
2023-05-10T02:09:35.074Z,96292.03
2023-05-10T02:12:03.658Z,96297.91
2023-05-10T02:14:35.320Z,96296.13
2023-05-10T02:17:03.409Z,96294.22
2023-05-10T02:19:30.467Z,96297.03
2023-05-10T02:21:58.505Z,96295.75
2023-05-10T02:24:26.502Z,96295.28
2023-05-10T02:26:55.253Z,96298.66
2023-05-10T02:29:24.301Z,96292.31
2023-05-10T02:31:52.757Z,96298.25
2023-05-10T02:34:19.908Z,96292.25
2023-05-10T02:36:47.278Z,96297.97
2023-05-10T02:39:14.656Z,96296.63
2023-05-10T02:41:42.466Z,96293.59
2023-05-10T02:44:10.170Z,96293.66
2023-05-10T02:46:38.653Z,96296.91
2023-05-10T02:49:05.797Z,96297.25
2023-05-10T02:51:34.719Z,96293.16
2023-05-10T02:54:05.109Z,96296.09
2023-05-10T02:56:36.140Z,96289.13
2023-05-10T02:59:03.186Z,96293.88
2023-05-10T03:01:30.545Z,96292.94
2023-05-10T03:03:58.634Z,96286.56
2023-05-10T03:06:25.882Z,96295.03
2023-05-10T03:08:52.864Z,96298.06
2023-05-10T03:11:26.222Z,96295.84
2023-05-10T03:14:32.198Z,96294.28
2023-05-10T03:17:32.223Z,96295.72
2023-05-10T03:20:03.428Z,96294.94
2023-05-10T03:22:37.458Z,96294.28
2023-05-10T03:25:09.453Z,96298.09
2023-05-10T03:27:36.879Z,96307.44
2023-05-10T03:30:04.374Z,96303.47
2023-05-10T03:32:35.453Z,96300.09
2023-05-10T03:35:07.335Z,96293.44
2023-05-10T03:37:34.365Z,96299.03
2023-05-10T03:40:01.407Z,96309.03
2023-05-10T03:42:30.616Z,96306.50
2023-05-10T03:44:57.702Z,96308.72
2023-05-10T03:47:25.564Z,96306.91
2023-05-10T03:49:52.973Z,96309.28
2023-05-10T03:52:20.145Z,96307.81
2023-05-10T03:54:47.173Z,96308.63
2023-05-10T03:57:14.168Z,96311.09
2023-05-10T03:59:41.358Z,96309.28
2023-05-10T04:02:08.392Z,96314.56
2023-05-10T04:04:36.899Z,96314.81
2023-05-10T04:07:03.977Z,96308.06
2023-05-10T04:09:31.044Z,96309.25
2023-05-10T04:11:58.067Z,96310.31
2023-05-10T04:14:25.069Z,96317.94
2023-05-10T04:16:52.350Z,96320.50
2023-05-10T04:19:19.396Z,96321.81
2023-05-10T04:21:46.471Z,96328.09
2023-05-10T04:24:13.613Z,96329.66
2023-05-10T04:26:40.620Z,96316.47
2023-05-10T04:29:07.730Z,96331.56
2023-05-10T04:31:35.310Z,96342.16
2023-05-10T04:34:02.316Z,96339.94
2023-05-10T04:36:29.868Z,96341.97
2023-05-10T04:38:56.927Z,96346.56
2023-05-10T04:41:23.995Z,96348.34
2023-05-10T04:43:51.210Z,96352.06
2023-05-10T04:46:18.430Z,96351.22
2023-05-10T04:48:45.581Z,96349.88
2023-05-10T04:51:12.757Z,96357.19
2023-05-10T04:53:39.871Z,96355.88
2023-05-10T04:56:07.281Z,96358.75
2023-05-10T04:58:34.693Z,96368.06
2023-05-10T05:01:11.653Z,96372.66
2023-05-10T05:03:38.613Z,96369.97
2023-05-10T05:06:05.933Z,96369.63
2023-05-10T05:08:33.134Z,96373.16
2023-05-10T05:11:00.533Z,96373.63
2023-05-10T05:13:27.791Z,96383.84
2023-05-10T05:15:55.618Z,96392.97
2023-05-10T05:18:22.742Z,96394.16
2023-05-10T05:20:49.690Z,96399.63
2023-05-10T05:23:16.754Z,96399.88
2023-05-10T05:25:43.672Z,96393.63
2023-05-10T05:28:10.769Z,96402.44
2023-05-10T05:30:37.945Z,96402.03
2023-05-10T05:33:05.269Z,96410.06
2023-05-10T05:35:32.367Z,96409.91
2023-05-10T05:37:59.387Z,96411.78
2023-05-10T05:40:26.451Z,96409.09
2023-05-10T05:42:53.486Z,96413.78
2023-05-10T05:45:20.684Z,96413.78
2023-05-10T05:47:48.276Z,96415.50
2023-05-10T05:50:15.591Z,96421.47
2023-05-10T05:52:42.615Z,96425.97
2023-05-10T05:55:09.658Z,96425.09
2023-05-10T05:57:36.706Z,96435.81
2023-05-10T06:00:04.159Z,96437.28
2023-05-10T06:02:39.801Z,96436.78
2023-05-10T06:05:07.686Z,96437.28
2023-05-10T06:07:34.698Z,96442.56
2023-05-10T06:10:01.989Z,96452.34
2023-05-10T06:12:29.170Z,96451.56
2023-05-10T06:14:56.121Z,96457.66
2023-05-10T06:17:23.506Z,96450.09
2023-05-10T06:19:50.608Z,96453.13
2023-05-10T06:22:17.646Z,96463.03
2023-05-10T06:24:44.683Z,96465.66
2023-05-10T06:27:11.672Z,96476.44
2023-05-10T06:29:38.635Z,96477.72
2023-05-10T06:32:05.586Z,96473.78
2023-05-10T06:34:32.704Z,96470.28
2023-05-10T06:36:59.774Z,96476.53
2023-05-10T06:39:26.752Z,96476.06
2023-05-10T06:41:53.725Z,96483.41
2023-05-10T06:44:20.781Z,96481.19
2023-05-10T06:46:48.016Z,96482.88
2023-05-10T06:49:15.057Z,96486.56
2023-05-10T06:51:42.016Z,96490.72
2023-05-10T06:54:08.946Z,96493.16
2023-05-10T06:56:36.444Z,96490.69
2023-05-10T06:59:03.997Z,96487.06
2023-05-10T07:01:31.148Z,96490.66
2023-05-10T07:03:58.111Z,96499.31
2023-05-10T07:06:32.752Z,96500.63
2023-05-10T07:09:01.461Z,96507.91
2023-05-10T07:11:28.479Z,96503.16
2023-05-10T07:13:55.503Z,96505.63
2023-05-10T07:16:22.925Z,96510.16
2023-05-10T07:18:51.462Z,96512.97
2023-05-10T07:21:18.463Z,96520.00
2023-05-10T07:23:45.489Z,96511.53
2023-05-10T07:26:12.733Z,96515.06
2023-05-10T07:28:40.172Z,96507.91
2023-05-10T07:31:07.206Z,96520.72
2023-05-10T07:33:34.239Z,96514.59
2023-05-10T07:36:01.532Z,96517.16
2023-05-10T07:38:28.588Z,96520.97
2023-05-10T07:40:55.792Z,96515.59
2023-05-10T07:43:22.837Z,96517.72
2023-05-10T07:45:49.791Z,96513.38
2023-05-10T07:48:16.809Z,96521.16
2023-05-10T07:50:43.763Z,96513.19
2023-05-10T07:53:11.003Z,96519.66
2023-05-10T07:55:37.950Z,96525.91
2023-05-10T07:58:05.080Z,96521.06
2023-05-10T08:00:32.227Z,96524.28
2023-05-10T08:02:59.357Z,96523.03
2023-05-10T08:05:26.571Z,96530.97
2023-05-10T08:07:53.549Z,96519.75
2023-05-10T08:10:20.557Z,96528.78
2023-05-10T08:12:47.538Z,96530.31
2023-05-10T08:15:14.661Z,96517.03
2023-05-10T08:17:42.074Z,96521.63
2023-05-10T08:20:09.440Z,96518.44
2023-05-10T08:22:36.831Z,96518.44
2023-05-10T08:25:05.064Z,96513.38
2023-05-10T08:27:33.094Z,96526.69
2023-05-10T08:30:00.154Z,96518.91
2023-05-10T08:32:27.238Z,96523.16
2023-05-10T08:34:54.242Z,96526.16
2023-05-10T08:37:21.240Z,96529.28
2023-05-10T08:39:49.031Z,96529.47
2023-05-10T08:42:17.938Z,96534.16
2023-05-10T08:44:44.942Z,96538.16
2023-05-10T08:47:12.056Z,96540.94
2023-05-10T08:49:39.300Z,96537.50
2023-05-10T08:52:06.644Z,96541.34
2023-05-10T08:54:34.260Z,96540.97
2023-05-10T08:57:01.340Z,96548.06
2023-05-10T08:59:28.580Z,96546.94
2023-05-10T09:01:56.643Z,96542.16
2023-05-10T09:04:23.684Z,96543.97
2023-05-10T09:06:50.720Z,96544.88
2023-05-10T09:09:18.656Z,96549.44
2023-05-10T09:11:46.067Z,96544.41
2023-05-10T09:14:13.559Z,96547.53
2023-05-10T09:16:41.166Z,96554.50
2023-05-10T09:19:09.712Z,96554.97
2023-05-10T09:21:39.275Z,96555.19
2023-05-10T09:24:07.332Z,96552.69
2023-05-10T09:26:34.679Z,96553.28
2023-05-10T09:29:02.346Z,96561.69
2023-05-10T09:32:04.770Z,96556.31
2023-05-10T09:34:33.065Z,96554.53
2023-05-10T09:37:04.508Z,96563.75
2023-05-10T09:39:35.660Z,96561.22
2023-05-10T09:42:06.470Z,96562.31
2023-05-10T09:44:33.904Z,96555.50
2023-05-10T09:47:02.000Z,96554.88
2023-05-10T09:49:29.108Z,96546.16
2023-05-10T09:52:06.227Z,96552.66
2023-05-10T09:54:33.634Z,96559.53
2023-05-10T09:57:00.851Z,96546.94
2023-05-10T09:59:28.480Z,96556.94
2023-05-10T10:02:04.523Z,96551.47
2023-05-10T10:04:31.780Z,96544.09
2023-05-10T10:07:05.536Z,96547.09
2023-05-10T10:09:32.979Z,96543.75
2023-05-10T10:12:03.433Z,96546.34
2023-05-10T10:14:30.672Z,96546.19
2023-05-10T10:17:07.320Z,96551.84
2023-05-10T10:19:36.893Z,96543.97
2023-05-10T10:22:04.335Z,96542.53
2023-05-10T10:24:31.424Z,96543.78
2023-05-10T10:27:05.401Z,96539.53
2023-05-10T10:29:45.568Z,96538.56
2023-05-10T10:32:29.044Z,96533.19
2023-05-10T10:34:56.245Z,96535.25
2023-05-10T10:37:23.307Z,96531.59
2023-05-10T10:39:51.458Z,96529.69
2023-05-10T10:42:47.980Z,96525.38
2023-05-10T10:45:15.155Z,96524.53
2023-05-10T10:47:44.249Z,96530.03
2023-05-10T10:50:13.904Z,96524.91
2023-05-10T10:52:41.810Z,96518.72
2023-05-10T10:55:19.951Z,96529.25
2023-05-10T10:57:48.225Z,96526.63
2023-05-10T11:00:34.119Z,96527.78
2023-05-10T11:03:14.598Z,96524.75
2023-05-10T11:05:48.362Z,96530.28
2023-05-10T11:08:34.958Z,96519.34
2023-05-10T11:11:10.208Z,96526.50
2023-05-10T11:13:41.932Z,96527.63
2023-05-10T11:16:12.723Z,96523.50
2023-05-10T11:18:39.850Z,96520.38
2023-05-10T11:21:07.379Z,96519.22
2023-05-10T11:23:49.567Z,96519.59
2023-05-10T11:26:16.532Z,96517.16
2023-05-10T11:28:47.356Z,96516.63
2023-05-10T11:31:15.188Z,96520.69
2023-05-10T11:33:45.352Z,96531.50
2023-05-10T11:36:13.699Z,96522.44
2023-05-10T11:38:40.792Z,96522.34
2023-05-10T11:41:12.613Z,96523.06
2023-05-10T11:43:40.123Z,96516.88
2023-05-10T11:46:12.186Z,96519.56
2023-05-10T11:48:43.027Z,96517.94
2023-05-10T11:51:09.897Z,96522.53
2023-05-10T11:53:36.818Z,96518.44
2023-05-10T11:56:06.781Z,96521.97
2023-05-10T11:58:34.007Z,96522.44
2023-05-10T12:01:01.262Z,96517.28
2023-05-10T12:03:29.019Z,96522.44
2023-05-10T12:05:56.486Z,96527.97
2023-05-10T12:08:27.232Z,96528.84
2023-05-10T12:10:54.613Z,96539.34
2023-05-10T12:13:22.143Z,96540.28
2023-05-10T12:15:49.169Z,96544.66
2023-05-10T12:18:16.388Z,96544.09
2023-05-10T12:20:43.880Z,96540.59
2023-05-10T12:23:11.120Z,96553.94
2023-05-10T12:25:38.473Z,96552.13
2023-05-10T12:28:06.979Z,96554.53
2023-05-10T12:30:34.723Z,96550.38
2023-05-10T12:33:11.771Z,96548.41
2023-05-10T12:35:45.513Z,96556.84
2023-05-10T12:38:33.639Z,96555.81
2023-05-10T12:41:01.570Z,96559.34
2023-05-10T12:43:28.728Z,96564.94
2023-05-10T12:45:56.093Z,96565.25
2023-05-10T12:48:23.173Z,96563.06
2023-05-10T12:50:50.217Z,96563.25
2023-05-10T12:53:17.662Z,96560.09
2023-05-10T12:55:45.017Z,96563.09
2023-05-10T12:58:15.757Z,96561.50
2023-05-10T13:00:48.191Z,96561.25
2023-05-10T13:03:16.697Z,96564.75
2023-05-10T13:05:44.335Z,96567.13
2023-05-10T13:08:11.590Z,96558.31
2023-05-10T13:10:38.593Z,96561.47
2023-05-10T13:13:06.340Z,96560.66
2023-05-10T13:15:33.325Z,96559.06
2023-05-10T13:18:01.246Z,96558.06
2023-05-10T13:20:28.411Z,96559.13
2023-05-10T13:22:55.598Z,96559.59
2023-05-10T13:25:22.566Z,96553.31
2023-05-10T13:27:49.507Z,96556.78
2023-05-10T13:30:16.649Z,96559.84
2023-05-10T13:32:43.770Z,96554.75
2023-05-10T13:35:10.881Z,96560.69
2023-05-10T13:37:39.091Z,96561.53
2023-05-10T13:40:07.209Z,96551.53
2023-05-10T13:42:34.574Z,96553.16
2023-05-10T13:45:04.863Z,96556.25
2023-05-10T13:47:33.300Z,96559.59
2023-05-10T13:50:00.294Z,96562.03
2023-05-10T13:52:27.595Z,96561.28
2023-05-10T13:54:56.303Z,96556.47
2023-05-10T13:57:24.174Z,96548.72
2023-05-10T13:59:51.423Z,96553.53
2023-05-10T14:02:18.336Z,96547.88
2023-05-10T14:04:45.427Z,96547.38
2023-05-10T14:07:12.454Z,96546.50
2023-05-10T14:09:39.508Z,96549.81
2023-05-10T14:12:06.550Z,96548.53
2023-05-10T14:14:33.495Z,96544.47
2023-05-10T14:17:01.244Z,96548.34
2023-05-10T14:19:28.865Z,96538.84
2023-05-10T14:21:55.887Z,96545.53
2023-05-10T14:24:22.883Z,96551.28
2023-05-10T14:26:49.901Z,96550.06
2023-05-10T14:29:16.852Z,96553.69
2023-05-10T14:31:43.819Z,96554.03
2023-05-10T14:34:11.051Z,96557.81
2023-05-10T14:36:37.982Z,96557.06
2023-05-10T14:39:05.184Z,96553.00
2023-05-10T14:41:32.150Z,96550.16
2023-05-10T14:43:59.177Z,96558.25
2023-05-10T14:46:26.332Z,96559.03
2023-05-10T14:48:53.445Z,96563.81
2023-05-10T14:51:22.855Z,96562.78
2023-05-10T14:53:50.562Z,96579.78
2023-05-10T14:56:17.647Z,96573.66
2023-05-10T14:58:44.676Z,96587.19
2023-05-10T15:01:11.983Z,96596.06
2023-05-10T15:03:39.543Z,96606.16
2023-05-10T15:06:07.176Z,96605.25
2023-05-10T15:08:34.198Z,96610.81
2023-05-10T15:11:01.259Z,96607.19
2023-05-10T15:13:28.304Z,96604.59
2023-05-10T15:15:55.853Z,96602.34
2023-05-10T15:18:25.359Z,96607.06
2023-05-10T15:20:52.442Z,96616.13
2023-05-10T15:23:19.484Z,96620.00
2023-05-10T15:25:46.526Z,96621.75
2023-05-10T15:28:14.052Z,96620.72
2023-05-10T15:30:41.057Z,96624.22
2023-05-10T15:33:08.784Z,96625.31
2023-05-10T15:35:36.861Z,96626.25
2023-05-10T15:38:03.848Z,96622.28
2023-05-10T15:40:30.888Z,96617.53
2023-05-10T15:42:58.405Z,96617.56
2023-05-10T15:45:25.721Z,96618.00
2023-05-10T15:47:52.904Z,96622.91
2023-05-10T15:50:19.961Z,96629.53
2023-05-10T15:52:47.020Z,96624.53
2023-05-10T15:55:14.431Z,96622.03
2023-05-10T15:57:42.678Z,96629.03
2023-05-10T16:00:10.480Z,96626.00
2023-05-10T16:02:41.174Z,96630.28
2023-05-10T16:05:09.675Z,96628.72
2023-05-10T16:07:36.619Z,96629.47
2023-05-10T16:10:06.526Z,96621.50
2023-05-10T16:12:33.671Z,96626.25
2023-05-10T16:15:00.723Z,96633.41
2023-05-10T16:17:27.778Z,96640.53
2023-05-10T16:19:55.142Z,96638.84
2023-05-10T16:22:22.500Z,96638.56
2023-05-10T16:24:49.608Z,96641.56
2023-05-10T16:27:17.520Z,96645.03
2023-05-10T16:29:44.559Z,96660.13
2023-05-10T16:32:11.725Z,96662.63
2023-05-10T16:34:38.776Z,96662.50
2023-05-10T16:37:05.822Z,96672.00
2023-05-10T16:39:32.847Z,96673.72
2023-05-10T16:41:59.948Z,96671.91
2023-05-10T16:44:27.055Z,96673.94
2023-05-10T16:46:54.980Z,96677.91
2023-05-10T16:49:23.761Z,96679.13
2023-05-10T16:51:52.889Z,96673.47
2023-05-10T16:54:21.429Z,96681.19
2023-05-10T16:56:48.436Z,96684.31
2023-05-10T16:59:16.414Z,96682.53
2023-05-10T17:01:43.649Z,96679.34
2023-05-10T17:04:10.749Z,96690.56
2023-05-10T17:06:37.849Z,96691.38
2023-05-10T17:09:05.802Z,96688.41
2023-05-10T17:11:32.907Z,96697.56
2023-05-10T17:14:01.444Z,96688.06
2023-05-10T17:16:29.681Z,96693.66
2023-05-10T17:18:56.896Z,96697.16
2023-05-10T17:21:23.914Z,96684.56
2023-05-10T17:23:50.957Z,96692.19
2023-05-10T17:26:17.944Z,96689.94
2023-05-10T17:28:45.241Z,96690.69
2023-05-10T17:31:12.266Z,96692.28
2023-05-10T17:33:39.449Z,96697.88
2023-05-10T17:36:06.684Z,96696.06
2023-05-10T17:38:33.709Z,96698.41
2023-05-10T17:41:00.762Z,96698.09
2023-05-10T17:43:27.808Z,96702.03
2023-05-10T17:45:54.768Z,96698.41
2023-05-10T17:48:22.130Z,96702.44
2023-05-10T17:50:52.606Z,96704.50
2023-05-10T17:53:19.636Z,96704.88
2023-05-10T17:55:47.064Z,96704.44
2023-05-10T17:58:14.175Z,96712.88
2023-05-10T18:00:41.319Z,96706.59
2023-05-10T18:03:08.836Z,96712.81
2023-05-10T18:05:37.489Z,96711.97
2023-05-10T18:08:05.391Z,96717.16
2023-05-10T18:10:32.629Z,96727.25
2023-05-10T18:13:00.720Z,96720.94
2023-05-10T18:15:28.119Z,96719.66
2023-05-10T18:17:56.750Z,96724.38
2023-05-10T18:20:24.042Z,96720.34
2023-05-10T18:22:51.391Z,96725.53
2023-05-10T18:25:19.207Z,96722.84
2023-05-10T18:27:46.824Z,96729.03
2023-05-10T18:30:14.544Z,96731.25
2023-05-10T18:32:41.867Z,96724.38
2023-05-10T18:35:09.436Z,96728.56
2023-05-10T18:37:36.662Z,96730.31
2023-05-10T18:40:05.123Z,96731.09
2023-05-10T18:42:32.801Z,96727.22
2023-05-10T18:44:59.844Z,96739.84
2023-05-10T18:47:27.658Z,96744.03
2023-05-10T18:49:55.430Z,96738.34
2023-05-10T18:52:22.983Z,96743.91
2023-05-10T18:54:50.588Z,96746.19
2023-05-10T18:57:18.159Z,96750.25
2023-05-10T18:59:45.618Z,96749.94
2023-05-10T19:02:13.866Z,96754.28
2023-05-10T19:04:41.088Z,96761.44
2023-05-10T19:07:09.898Z,96764.09
2023-05-10T19:09:37.315Z,96759.25
2023-05-10T19:12:04.521Z,96759.44
2023-05-10T19:14:31.753Z,96765.28
2023-05-10T19:17:00.321Z,96768.47
2023-05-10T19:19:30.549Z,96765.13
2023-05-10T19:21:58.540Z,96764.59
2023-05-10T19:24:27.458Z,96768.78
2023-05-10T19:26:56.802Z,96765.03
2023-05-10T19:29:25.598Z,96765.59
2023-05-10T19:31:53.898Z,96771.22
2023-05-10T19:34:21.322Z,96763.00
2023-05-10T19:36:48.675Z,96768.97
2023-05-10T19:39:15.791Z,96771.78
2023-05-10T19:41:42.990Z,96774.91
2023-05-10T19:44:10.315Z,96766.78
2023-05-10T19:46:37.436Z,96769.88
2023-05-10T19:49:04.565Z,96772.16
2023-05-10T19:51:31.676Z,96766.72
2023-05-10T19:53:58.784Z,96775.44
2023-05-10T19:56:27.039Z,96776.84
2023-05-10T19:58:54.167Z,96776.34
2023-05-10T20:01:21.359Z,96769.19
2023-05-10T20:03:48.458Z,96775.34
2023-05-10T20:06:15.775Z,96778.75
2023-05-10T20:08:43.008Z,96775.72
2023-05-10T20:11:10.250Z,96775.34
2023-05-10T20:13:37.341Z,96778.09
2023-05-10T20:16:06.175Z,96771.31
2023-05-10T20:18:33.633Z,96772.88
2023-05-10T20:21:00.840Z,96774.25
2023-05-10T20:23:27.982Z,96772.59
2023-05-10T20:25:55.260Z,96775.25
2023-05-10T20:28:23.767Z,96777.97
2023-05-10T20:30:53.136Z,96779.91
2023-05-10T20:33:21.570Z,96785.69
2023-05-10T20:35:50.227Z,96779.31
2023-05-10T20:38:18.227Z,96774.66
2023-05-10T20:40:45.687Z,96784.69
2023-05-10T20:43:12.958Z,96772.97
2023-05-10T20:45:40.051Z,96781.31
2023-05-10T20:48:07.831Z,96772.06
2023-05-10T20:50:35.171Z,96780.88
2023-05-10T20:53:02.203Z,96780.72
2023-05-10T20:55:29.310Z,96782.59
2023-05-10T20:57:56.363Z,96788.75
2023-05-10T21:00:23.609Z,96787.16
2023-05-10T21:02:50.810Z,96781.72
2023-05-10T21:05:18.443Z,96780.69
2023-05-10T21:07:45.485Z,96777.00
2023-05-10T21:10:12.779Z,96773.28
2023-05-10T21:12:39.770Z,96776.03
2023-05-10T21:15:07.621Z,96774.28
2023-05-10T21:17:34.698Z,96766.59
2023-05-10T21:20:01.763Z,96773.66
2023-05-10T21:22:28.768Z,96775.34
2023-05-10T21:24:55.794Z,96777.94
2023-05-10T21:27:22.945Z,96778.56
2023-05-10T21:29:50.100Z,96776.25
2023-05-10T21:32:17.133Z,96778.34
2023-05-10T21:34:44.208Z,96784.88
2023-05-10T21:37:11.231Z,96778.59
2023-05-10T21:39:38.365Z,96772.34
2023-05-10T21:42:05.451Z,96769.00
2023-05-10T21:44:32.626Z,96772.28
2023-05-10T21:46:59.641Z,96769.66
2023-05-10T21:49:27.054Z,96771.38
2023-05-10T21:51:54.033Z,96760.19
2023-05-10T21:54:21.077Z,96769.13
2023-05-10T21:56:48.616Z,96769.38
2023-05-10T21:59:15.646Z,96770.75
2023-05-10T22:01:43.957Z,96763.81
2023-05-10T22:04:11.367Z,96763.44
2023-05-10T22:06:38.326Z,96761.78
2023-05-10T22:09:05.354Z,96754.25
2023-05-10T22:11:32.433Z,96758.06
2023-05-10T22:13:59.471Z,96757.47
2023-05-10T22:16:26.673Z,96754.84
2023-05-10T22:18:54.610Z,96753.97
2023-05-10T22:21:21.815Z,96758.63
2023-05-10T22:23:48.804Z,96757.44
2023-05-10T22:26:15.745Z,96754.50
2023-05-10T22:28:42.785Z,96760.72
2023-05-10T22:31:11.523Z,96755.47
2023-05-10T22:33:38.814Z,96759.22
2023-05-10T22:36:06.377Z,96751.69
2023-05-10T22:38:33.362Z,96755.75
2023-05-10T22:41:00.740Z,96750.19
2023-05-10T22:43:27.698Z,96747.81
2023-05-10T22:45:54.657Z,96751.28
2023-05-10T22:48:22.152Z,96749.09
2023-05-10T22:50:49.100Z,96752.88
2023-05-10T22:53:16.410Z,96754.66
2023-05-10T22:55:43.452Z,96753.38
2023-05-10T22:58:10.597Z,96757.06
2023-05-10T23:00:37.964Z,96746.31
2023-05-10T23:03:05.507Z,96752.50
2023-05-10T23:05:32.653Z,96759.25
2023-05-10T23:07:59.604Z,96752.88
2023-05-10T23:10:26.940Z,96757.53
2023-05-10T23:12:55.650Z,96749.59
2023-05-10T23:15:22.848Z,96752.66
2023-05-10T23:17:49.916Z,96749.47
2023-05-10T23:20:17.212Z,96746.31
2023-05-10T23:22:45.024Z,96753.97
2023-05-10T23:25:12.092Z,96749.09
2023-05-10T23:27:39.510Z,96761.84
2023-05-10T23:30:07.245Z,96747.91
2023-05-10T23:32:34.325Z,96755.16
2023-05-10T23:35:01.301Z,96751.09
2023-05-10T23:37:28.387Z,96762.22
2023-05-10T23:39:55.440Z,96760.84
2023-05-10T23:42:22.477Z,96755.28
2023-05-10T23:44:50.981Z,96756.25
2023-05-10T23:47:18.076Z,96744.81
2023-05-10T23:49:45.168Z,96739.34
2023-05-10T23:52:12.243Z,96747.41
2023-05-10T23:54:39.401Z,96742.34
2023-05-10T23:57:06.389Z,96744.22
2023-05-10T23:59:33.354Z,96737.09
